SLRB

Details ICAO SLRB
Name Robore
Region Bolivia
Timezone America/La_Paz (UTC-4.0)
Plans Departing 0
Arriving 1
Stats Elevation 906 ft / 276 m (AMSL)
Location -18.318890° -59.765556°
Runways 1
Magnetic Variation 14.477° W
Sunrise 2018-05-25 10:22:49 UTC / 2018-05-25 06:22:49 Local
Sunset 2018-05-25 21:32:05 UTC / 2018-05-25 17:32:05 Local
Advertisement - Login to hide

Runways

ID Width Length Bearing (true) Bearing (mag) Surface Threshold Offset Overrun Length
17 56 ft / 17 m 3,940 ft / 1,201 m 160.00° 174.48° Concrete 0 ft / 0 m 0 ft / 0 m
35 56 ft / 17 m 3,940 ft / 1,201 m 340.00° 354.48° Concrete 0 ft / 0 m 0 ft / 0 m

Map

Weather


0- 5 10 15 20 25 30 35+ Temperature / ° C

Clouds and Precipitation
Forecast for 2018-05-25 18:00 UTC. Updated 2 hours ago

Ground ~20,000 ft ~40,000 ft Winds

METAR

SLRB 251900Z 00000KT 9999 NSC 26/17 Q1018

TAF

Not found
Warning: Do not use this data for real-world aviation or navigation. No guarantee of current accuracy is given.